Time;durP1;ratioP1;P1;durP2;ratioP2;P2;SDS_P1;SDS_P2;PMS_P1;PMS_P2;Temp;Humidity;BMP_temperature;BMP_pressure;BME280_temperature;BME280_humidity;BME280_pressure;Samples;Min_cycle;Max_cycle;Signal;HPM_P1;HPM_P2
2023/12/08 00:01:01;;;;;;;;;;;19.00;59.70;;;;;;5036733;28;1441;-70
2023/12/08 00:03:26;;;;;;;;;;;19.00;59.70;;;;;;5038282;28;1439;-70
2023/12/08 00:05:52;;;;;;;;;;;19.00;59.70;;;;;;5040088;28;1494;-70
2023/12/08 00:08:18;;;;;;;;;;;19.00;59.70;;;;;;5038191;28;1966;-69
2023/12/08 00:10:43;;;;;;;;;;;19.00;59.70;;;;;;5038364;28;1399;-70
2023/12/08 00:13:08;;;;;;;;;;;19.00;59.70;;;;;;5041056;28;1395;-70
2023/12/08 00:15:34;;;;;;;;;;;19.00;59.70;;;;;;5024092;28;1300;-70
2023/12/08 00:18:00;;;;;;;;;;;19.00;59.70;;;;;;5038521;28;1425;-70
2023/12/08 00:20:25;;;;;;;;;;;19.00;59.70;;;;;;5040108;28;1254;-70
2023/12/08 00:22:51;;;;;;;;;;;19.00;59.70;;;;;;5039152;28;1646;-70
2023/12/08 00:25:16;;;;;;;;;;;19.00;59.70;;;;;;5045316;28;1341;-69
2023/12/08 00:27:42;;;;;;;;;;;19.00;59.70;;;;;;5036283;28;1957;-70
2023/12/08 00:30:08;;;;;;;;;;;19.00;59.70;;;;;;5035961;28;1370;-70
2023/12/08 00:32:33;;;;;;;;;;;19.00;59.70;;;;;;5047004;28;1448;-70
2023/12/08 00:34:58;;;;;;;;;;;19.00;59.70;;;;;;5035291;28;1531;-70
2023/12/08 00:37:25;;;;;;;;;;;19.00;59.70;;;;;;5037836;28;1438;-69
2023/12/08 00:39:50;;;;;;;;;;;19.00;59.70;;;;;;5039021;28;1391;-69
2023/12/08 00:42:16;;;;;;;;;;;19.00;59.70;;;;;;5037999;28;1612;-69
2023/12/08 00:44:41;;;;;;;;;;;19.00;59.70;;;;;;5036588;28;1350;-70
2023/12/08 00:47:06;;;;;;;;;;;19.00;59.70;;;;;;5037471;28;1292;-69
2023/12/08 00:49:32;;;;;;;;;;;19.00;59.70;;;;;;5021190;28;1914;-70
2023/12/08 00:51:58;;;;;;;;;;;19.00;59.70;;;;;;5038003;28;1429;-70
2023/12/08 00:54:23;;;;;;;;;;;19.00;59.70;;;;;;5036883;28;1521;-69
2023/12/08 00:56:49;;;;;;;;;;;19.00;59.70;;;;;;5037069;28;1824;-69
2023/12/08 00:59:14;;;;;;;;;;;19.00;59.70;;;;;;5037251;28;951;-69
2023/12/08 01:01:39;;;;;;;;;;;19.00;59.70;;;;;;5038224;28;1319;-69
2023/12/08 01:04:05;;;;;;;;;;;19.00;59.70;;;;;;5035960;28;1333;-69
2023/12/08 01:06:30;;;;;;;;;;;19.00;59.70;;;;;;5038616;28;1202;-70
2023/12/08 01:08:56;;;;;;;;;;;19.00;59.70;;;;;;5038157;28;1967;-69
2023/12/08 01:11:21;;;;;;;;;;;19.00;59.80;;;;;;5037593;28;1235;-70
2023/12/08 01:13:47;;;;;;;;;;;19.00;59.80;;;;;;5070358;28;1399;-69
2023/12/08 01:16:12;;;;;;;;;;;18.90;59.70;;;;;;5037017;28;1208;-70
2023/12/08 01:18:38;;;;;;;;;;;18.90;59.70;;;;;;5039129;28;1355;-70
2023/12/08 01:21:03;;;;;;;;;;;19.00;59.80;;;;;;5038601;28;1362;-69
2023/12/08 01:23:29;;;;;;;;;;;18.90;59.80;;;;;;5035933;28;1493;-69
2023/12/08 01:25:54;;;;;;;;;;;19.00;59.80;;;;;;5038610;28;1352;-69
2023/12/08 01:28:20;;;;;;;;;;;18.90;59.70;;;;;;5036494;28;1910;-69
2023/12/08 01:30:45;;;;;;;;;;;18.90;59.70;;;;;;5038196;28;1687;-69
2023/12/08 01:33:11;;;;;;;;;;;18.90;59.80;;;;;;5036689;28;1084;-69
2023/12/08 01:35:36;;;;;;;;;;;18.90;59.80;;;;;;5039305;28;1408;-70
2023/12/08 01:38:02;;;;;;;;;;;18.90;59.80;;;;;;5039129;28;1347;-70
2023/12/08 01:40:27;;;;;;;;;;;18.90;59.80;;;;;;5036528;28;1387;-69
2023/12/08 01:42:53;;;;;;;;;;;18.90;60.40;;;;;;5038189;28;1378;-69
2023/12/08 01:45:18;;;;;;;;;;;18.90;59.80;;;;;;5036518;28;1331;-69
2023/12/08 01:47:44;;;;;;;;;;;18.90;59.80;;;;;;5069911;28;1906;-70
2023/12/08 01:50:09;;;;;;;;;;;18.90;59.80;;;;;;5038462;28;1352;-70
2023/12/08 01:52:35;;;;;;;;;;;18.90;59.80;;;;;;5047868;28;1431;-70
2023/12/08 01:55:01;;;;;;;;;;;18.90;59.80;;;;;;5041208;28;1461;-70
2023/12/08 01:57:26;;;;;;;;;;;18.90;59.80;;;;;;5023066;28;1386;-69
2023/12/08 01:59:52;;;;;;;;;;;18.90;59.80;;;;;;5038089;28;1391;-70
2023/12/08 02:02:18;;;;;;;;;;;18.90;59.80;;;;;;5038389;28;1647;-70
2023/12/08 02:04:44;;;;;;;;;;;18.90;59.90;;;;;;5039487;28;1589;-70
2023/12/08 02:07:10;;;;;;;;;;;18.90;59.80;;;;;;5037207;28;1449;-70
2023/12/08 02:09:36;;;;;;;;;;;18.90;59.90;;;;;;5047956;28;1898;-70
2023/12/08 02:12:01;;;;;;;;;;;18.90;59.90;;;;;;5043976;28;1527;-70
2023/12/08 02:14:27;;;;;;;;;;;18.90;59.90;;;;;;5043954;28;1358;-70
2023/12/08 02:17:18;;;;;;;;;;;18.90;59.90;;;;;;5042319;28;1476;-70
2023/12/08 02:19:44;;;;;;;;;;;18.90;59.90;;;;;;5026303;28;1255;-69
2023/12/08 02:22:09;;;;;;;;;;;18.90;59.90;;;;;;5040767;28;1536;-69
2023/12/08 02:24:35;;;;;;;;;;;18.90;59.90;;;;;;5039638;28;1650;-70
2023/12/08 02:27:00;;;;;;;;;;;18.90;59.90;;;;;;5039241;28;1529;-70
2023/12/08 02:29:26;;;;;;;;;;;18.90;59.90;;;;;;5038423;28;1893;-69
2023/12/08 02:31:56;;;;;;;;;;;18.90;60.00;;;;;;5042506;28;1319;-69
2023/12/08 02:34:22;;;;;;;;;;;18.90;59.90;;;;;;5039188;28;1180;-69
2023/12/08 02:36:47;;;;;;;;;;;18.90;59.90;;;;;;5037530;28;1892;-69
2023/12/08 02:39:13;;;;;;;;;;;18.90;59.90;;;;;;5040740;28;1409;-69
2023/12/08 02:41:38;;;;;;;;;;;18.90;60.00;;;;;;5040596;28;1327;-69
2023/12/08 02:44:04;;;;;;;;;;;18.90;59.90;;;;;;5037398;28;1530;-69
2023/12/08 02:46:30;;;;;;;;;;;18.90;59.90;;;;;;5038815;28;1544;-69
2023/12/08 02:48:55;;;;;;;;;;;18.90;59.90;;;;;;5038747;28;1895;-69
2023/12/08 02:51:20;;;;;;;;;;;18.90;59.90;;;;;;5039000;28;1338;-70
2023/12/08 02:53:46;;;;;;;;;;;18.90;60.00;;;;;;5040651;28;1382;-70
2023/12/08 02:56:11;;;;;;;;;;;18.90;59.90;;;;;;5038621;28;1545;-70
2023/12/08 02:58:37;;;;;;;;;;;18.90;60.00;;;;;;5036579;28;1336;-69
2023/12/08 03:01:02;;;;;;;;;;;18.90;60.00;;;;;;5040705;28;1347;-69
2023/12/08 03:03:28;;;;;;;;;;;18.90;60.00;;;;;;5039502;28;1199;-69
2023/12/08 03:05:53;;;;;;;;;;;18.90;60.00;;;;;;5040026;28;1294;-69
2023/12/08 03:08:19;;;;;;;;;;;18.90;60.00;;;;;;5046693;28;2112;-69
2023/12/08 03:10:44;;;;;;;;;;;18.90;60.00;;;;;;5040688;28;1553;-69
2023/12/08 03:13:09;;;;;;;;;;;18.90;60.00;;;;;;5037685;28;1386;-69
2023/12/08 03:15:35;;;;;;;;;;;18.90;60.10;;;;;;5037227;28;1456;-69
2023/12/08 03:18:01;;;;;;;;;;;18.90;60.00;;;;;;5038408;28;1392;-69
2023/12/08 03:20:26;;;;;;;;;;;18.90;60.00;;;;;;5038325;28;1391;-69
2023/12/08 03:22:52;;;;;;;;;;;18.90;60.00;;;;;;5038420;28;1760;-69
2023/12/08 03:25:17;;;;;;;;;;;18.90;60.00;;;;;;5039882;28;1341;-69
2023/12/08 03:27:42;;;;;;;;;;;18.90;60.00;;;;;;5039697;28;1886;-70
2023/12/08 03:30:08;;;;;;;;;;;18.90;60.00;;;;;;5039536;28;1301;-69
2023/12/08 03:32:34;;;;;;;;;;;18.90;60.00;;;;;;5041266;28;1281;-69
2023/12/08 03:34:59;;;;;;;;;;;18.90;60.00;;;;;;5039046;28;1457;-69
2023/12/08 03:37:25;;;;;;;;;;;18.90;60.00;;;;;;5036512;28;1470;-69
2023/12/08 03:39:50;;;;;;;;;;;18.90;60.00;;;;;;5037363;28;1256;-69
2023/12/08 03:42:16;;;;;;;;;;;18.90;60.00;;;;;;5038324;28;1529;-69
2023/12/08 03:44:41;;;;;;;;;;;18.90;60.00;;;;;;5037502;28;1343;-69
2023/12/08 03:47:07;;;;;;;;;;;18.90;59.90;;;;;;5037603;28;1343;-70
2023/12/08 03:49:32;;;;;;;;;;;18.90;59.90;;;;;;5046029;28;1971;-69
2023/12/08 03:51:57;;;;;;;;;;;18.90;59.90;;;;;;5041750;28;1439;-69
2023/12/08 03:54:23;;;;;;;;;;;18.90;60.00;;;;;;5037027;28;1209;-69
2023/12/08 03:56:48;;;;;;;;;;;18.90;59.90;;;;;;5037649;28;1276;-69
2023/12/08 03:59:14;;;;;;;;;;;18.90;59.90;;;;;;5038664;28;1480;-69
2023/12/08 04:01:39;;;;;;;;;;;18.90;59.90;;;;;;5040427;28;1388;-70
2023/12/08 04:04:10;;;;;;;;;;;18.90;60.00;;;;;;5042880;28;1424;-70
2023/12/08 04:06:36;;;;;;;;;;;18.90;59.90;;;;;;5038392;28;1261;-69
2023/12/08 04:09:02;;;;;;;;;;;18.90;59.90;;;;;;5024359;28;1993;-70
2023/12/08 04:11:27;;;;;;;;;;;18.90;60.00;;;;;;5040242;28;1414;-68
2023/12/08 04:13:52;;;;;;;;;;;18.90;60.00;;;;;;5041883;28;1409;-70
2023/12/08 04:16:19;;;;;;;;;;;18.90;60.00;;;;;;5039207;28;1565;-71
2023/12/08 04:18:45;;;;;;;;;;;18.90;60.00;;;;;;5042059;28;1335;-69
2023/12/08 04:21:15;;;;;;;;;;;18.90;60.00;;;;;;5041765;28;1358;-71
2023/12/08 04:23:41;;;;;;;;;;;18.90;60.70;;;;;;5025302;28;1952;-69
2023/12/08 04:26:06;;;;;;;;;;;18.90;60.00;;;;;;5038477;28;1455;-70
2023/12/08 04:28:32;;;;;;;;;;;18.90;60.00;;;;;;5036787;28;2176;-70
2023/12/08 04:30:57;;;;;;;;;;;18.90;59.90;;;;;;5037969;28;1370;-69
2023/12/08 04:33:23;;;;;;;;;;;18.90;60.00;;;;;;5040067;28;1362;-70
2023/12/08 04:35:48;;;;;;;;;;;18.90;59.90;;;;;;5040771;28;1531;-69
2023/12/08 04:38:14;;;;;;;;;;;18.90;60.00;;;;;;5036744;28;1363;-71
2023/12/08 04:40:39;;;;;;;;;;;18.90;60.00;;;;;;5039493;28;1409;-70
2023/12/08 04:43:05;;;;;;;;;;;18.90;60.00;;;;;;5039982;28;1400;-69
2023/12/08 04:45:30;;;;;;;;;;;18.90;60.00;;;;;;5037975;28;1411;-70
2023/12/08 04:47:56;;;;;;;;;;;18.90;60.00;;;;;;5038983;28;1995;-70
2023/12/08 04:50:22;;;;;;;;;;;18.90;60.00;;;;;;5036951;28;1480;-70
2023/12/08 04:52:47;;;;;;;;;;;18.90;60.00;;;;;;5035869;28;1475;-70
2023/12/08 04:55:13;;;;;;;;;;;18.90;60.00;;;;;;5037273;28;1322;-70
2023/12/08 04:57:38;;;;;;;;;;;18.90;60.00;;;;;;5035728;28;1292;-71
2023/12/08 05:00:05;;;;;;;;;;;18.90;60.00;;;;;;5037496;28;1471;-70
2023/12/08 05:02:30;;;;;;;;;;;18.80;59.90;;;;;;5039171;28;1519;-70
2023/12/08 05:04:56;;;;;;;;;;;18.90;60.00;;;;;;5037766;28;1473;-68
2023/12/08 05:07:21;;;;;;;;;;;18.80;60.00;;;;;;5039269;28;1303;-69
2023/12/08 05:09:47;;;;;;;;;;;18.90;60.10;;;;;;5037999;28;1898;-70
2023/12/08 05:12:12;;;;;;;;;;;18.90;60.10;;;;;;5037817;28;1426;-70
2023/12/08 05:14:38;;;;;;;;;;;18.90;60.00;;;;;;5035989;28;1404;-70
2023/12/08 05:17:03;;;;;;;;;;;19.00;60.00;;;;;;5038618;28;1517;-69
2023/12/08 05:19:29;;;;;;;;;;;19.10;60.00;;;;;;5036922;28;1503;-70
2023/12/08 05:21:55;;;;;;;;;;;19.20;59.80;;;;;;5039411;28;1451;-69
2023/12/08 05:24:20;;;;;;;;;;;19.40;59.60;;;;;;5036097;28;1561;-68
2023/12/08 05:26:46;;;;;;;;;;;19.50;59.30;;;;;;5038151;28;1358;-68
2023/12/08 05:29:11;;;;;;;;;;;19.70;59.00;;;;;;5038134;28;1956;-69
2023/12/08 05:31:37;;;;;;;;;;;19.80;58.70;;;;;;5040690;28;1268;-69
2023/12/08 05:34:02;;;;;;;;;;;19.90;58.30;;;;;;5039914;28;1358;-68
2023/12/08 05:36:28;;;;;;;;;;;20.10;58.10;;;;;;5039632;28;1386;-68
2023/12/08 05:38:53;;;;;;;;;;;20.30;57.90;;;;;;5034745;28;1487;-68
2023/12/08 05:41:19;;;;;;;;;;;20.40;57.60;;;;;;5039324;28;1361;-69
2023/12/08 05:43:44;;;;;;;;;;;20.50;57.40;;;;;;5038640;28;1526;-69
2023/12/08 05:46:10;;;;;;;;;;;20.60;57.10;;;;;;5038442;28;1343;-70
2023/12/08 05:48:35;;;;;;;;;;;20.70;56.90;;;;;;5035663;28;1963;-71
2023/12/08 05:51:01;;;;;;;;;;;20.80;56.70;;;;;;5035516;28;1587;-72
2023/12/08 05:53:27;;;;;;;;;;;20.90;56.40;;;;;;5037066;28;1332;-69
2023/12/08 05:55:52;;;;;;;;;;;21.00;56.30;;;;;;5034137;28;1355;-69
2023/12/08 05:58:18;;;;;;;;;;;21.00;56.10;;;;;;5035445;28;1420;-69
2023/12/08 06:00:43;;;;;;;;;;;21.10;56.00;;;;;;5035761;28;1356;-69
2023/12/08 06:03:09;;;;;;;;;;;21.10;55.90;;;;;;5036549;28;1286;-69
2023/12/08 06:05:34;;;;;;;;;;;21.10;55.80;;;;;;5037529;28;1406;-69
2023/12/08 06:08:00;;;;;;;;;;;21.10;55.80;;;;;;5037355;28;1973;-70
2023/12/08 06:10:25;;;;;;;;;;;21.10;55.80;;;;;;5038259;28;1352;-69
2023/12/08 06:12:52;;;;;;;;;;;21.20;55.80;;;;;;5035944;28;1429;-70
2023/12/08 06:15:18;;;;;;;;;;;21.20;55.80;;;;;;5039546;28;1466;-70
2023/12/08 06:17:43;;;;;;;;;;;21.10;55.70;;;;;;5035677;28;1369;-70
2023/12/08 06:20:10;;;;;;;;;;;21.10;55.80;;;;;;5043535;28;1556;-70
2023/12/08 06:22:35;;;;;;;;;;;21.10;55.80;;;;;;5036115;28;1493;-70
2023/12/08 06:25:01;;;;;;;;;;;21.10;55.80;;;;;;5035766;28;1383;-70
2023/12/08 06:27:26;;;;;;;;;;;21.10;55.80;;;;;;5035508;28;1291;-70
2023/12/08 06:29:52;;;;;;;;;;;21.10;55.80;;;;;;5038699;28;1905;-70
2023/12/08 06:32:18;;;;;;;;;;;21.10;55.80;;;;;;5039525;28;1556;-70
2023/12/08 06:34:44;;;;;;;;;;;21.10;55.90;;;;;;5037197;28;1599;-69
2023/12/08 06:37:10;;;;;;;;;;;21.00;55.90;;;;;;5039091;28;1424;-69
2023/12/08 06:39:35;;;;;;;;;;;21.00;55.90;;;;;;5040445;28;1255;-70
2023/12/08 06:42:01;;;;;;;;;;;21.00;56.00;;;;;;5041933;28;1504;-69
2023/12/08 06:44:27;;;;;;;;;;;21.00;56.60;;;;;;5037923;28;1336;-69
2023/12/08 06:46:53;;;;;;;;;;;21.00;56.10;;;;;;5040727;28;1618;-69
2023/12/08 06:49:18;;;;;;;;;;;20.90;56.10;;;;;;5040915;28;1908;-69
2023/12/08 06:51:44;;;;;;;;;;;20.90;56.20;;;;;;5054575;28;1351;-69
2023/12/08 06:54:10;;;;;;;;;;;20.90;56.20;;;;;;5040803;28;1525;-69
2023/12/08 06:56:36;;;;;;;;;;;20.80;56.20;;;;;;5035583;28;2005;-70
2023/12/08 06:59:01;;;;;;;;;;;20.80;56.30;;;;;;5029818;28;2030;-70
2023/12/08 07:01:27;;;;;;;;;;;20.80;56.40;;;;;;5034277;28;1443;-70
2023/12/08 07:03:52;;;;;;;;;;;20.80;56.50;;;;;;5039358;28;1248;-70
2023/12/08 07:06:18;;;;;;;;;;;20.70;56.40;;;;;;5039213;28;1229;-69
2023/12/08 07:08:43;;;;;;;;;;;20.70;56.50;;;;;;5038332;28;1973;-68
2023/12/08 07:11:09;;;;;;;;;;;20.70;56.60;;;;;;5039453;28;908;-71
2023/12/08 07:13:34;;;;;;;;;;;20.70;56.70;;;;;;5039230;28;976;-69
2023/12/08 07:15:59;;;;;;;;;;;20.70;56.70;;;;;;5038820;28;1208;-68
2023/12/08 07:18:25;;;;;;;;;;;20.60;56.80;;;;;;5038169;28;1395;-70
2023/12/08 07:20:50;;;;;;;;;;;20.60;56.90;;;;;;5038426;28;1465;-69
2023/12/08 07:23:16;;;;;;;;;;;20.60;56.90;;;;;;5037132;28;1382;-68
2023/12/08 07:25:41;;;;;;;;;;;20.60;57.00;;;;;;5038786;28;1343;-70
2023/12/08 07:28:07;;;;;;;;;;;20.50;57.00;;;;;;5037376;28;1901;-69
2023/12/08 07:30:32;;;;;;;;;;;20.50;57.00;;;;;;5037638;28;1321;-68
2023/12/08 07:32:58;;;;;;;;;;;20.50;57.10;;;;;;5039536;28;1557;-69
2023/12/08 07:35:23;;;;;;;;;;;20.40;57.20;;;;;;5038143;28;1456;-70
2023/12/08 07:37:49;;;;;;;;;;;20.40;57.20;;;;;;5034850;28;1496;-69
2023/12/08 07:40:15;;;;;;;;;;;20.40;57.30;;;;;;5046067;28;1398;-69
2023/12/08 07:42:41;;;;;;;;;;;20.40;57.40;;;;;;5039745;28;1278;-69
2023/12/08 07:45:07;;;;;;;;;;;20.30;57.40;;;;;;5037627;28;1464;-71
2023/12/08 07:47:33;;;;;;;;;;;20.30;57.40;;;;;;5037023;28;1505;-71
2023/12/08 07:49:59;;;;;;;;;;;20.30;57.50;;;;;;5036018;28;1898;-72
2023/12/08 07:52:25;;;;;;;;;;;20.30;57.60;;;;;;5035032;28;1489;-70
2023/12/08 07:54:50;;;;;;;;;;;20.30;57.60;;;;;;5040432;28;1387;-70
2023/12/08 07:57:15;;;;;;;;;;;20.20;57.60;;;;;;5039084;28;1300;-70
2023/12/08 07:59:41;;;;;;;;;;;20.20;57.70;;;;;;5036904;28;1444;-69
2023/12/08 08:02:07;;;;;;;;;;;20.20;57.70;;;;;;5038298;28;1377;-71
2023/12/08 08:04:32;;;;;;;;;;;20.20;57.80;;;;;;5040245;28;1438;-71
2023/12/08 08:06:58;;;;;;;;;;;20.10;57.80;;;;;;5040739;28;1439;-71
2023/12/08 08:09:23;;;;;;;;;;;20.10;57.90;;;;;;5035583;28;1902;-71
2023/12/08 08:11:48;;;;;;;;;;;20.10;57.90;;;;;;5036554;28;1498;-71
2023/12/08 08:14:14;;;;;;;;;;;20.10;57.90;;;;;;5037533;28;1391;-71
2023/12/08 08:16:40;;;;;;;;;;;20.10;58.00;;;;;;5039814;28;1409;-71
2023/12/08 08:19:05;;;;;;;;;;;20.10;58.00;;;;;;5038907;28;1611;-70
2023/12/08 08:21:31;;;;;;;;;;;20.00;58.00;;;;;;5037524;28;1674;-70
2023/12/08 08:23:56;;;;;;;;;;;20.00;58.10;;;;;;5038865;28;1884;-70
2023/12/08 08:26:23;;;;;;;;;;;20.00;58.10;;;;;;5034369;28;1591;-72
2023/12/08 08:28:49;;;;;;;;;;;20.00;58.10;;;;;;5035698;28;1951;-70
2023/12/08 08:31:16;;;;;;;;;;;20.00;58.10;;;;;;5035870;28;1682;-71
2023/12/08 08:33:41;;;;;;;;;;;20.00;58.20;;;;;;5036905;28;1374;-72
2023/12/08 08:36:07;;;;;;;;;;;20.00;58.20;;;;;;5039676;28;1498;-72
2023/12/08 08:38:32;;;;;;;;;;;19.90;58.10;;;;;;5034122;28;1397;-72
2023/12/08 08:40:58;;;;;;;;;;;20.00;58.20;;;;;;5039885;28;1485;-72
2023/12/08 08:43:23;;;;;;;;;;;19.90;58.20;;;;;;5036579;28;1586;-71
2023/12/08 08:45:49;;;;;;;;;;;19.90;58.20;;;;;;5037175;28;1474;-69
2023/12/08 08:48:14;;;;;;;;;;;19.90;58.20;;;;;;5036646;28;1909;-70
2023/12/08 08:50:40;;;;;;;;;;;19.90;58.20;;;;;;5036695;28;1415;-71
2023/12/08 08:53:05;;;;;;;;;;;19.90;58.20;;;;;;5036240;28;1818;-71
2023/12/08 08:55:31;;;;;;;;;;;19.90;58.20;;;;;;5035469;28;1383;-71
2023/12/08 08:57:56;;;;;;;;;;;19.90;58.20;;;;;;5035157;28;1518;-70
2023/12/08 09:00:25;;;;;;;;;;;19.90;58.20;;;;;;5035817;28;1433;-71
2023/12/08 09:02:51;;;;;;;;;;;19.90;58.20;;;;;;5036527;28;1345;-70
2023/12/08 09:05:17;;;;;;;;;;;19.90;58.20;;;;;;5036580;28;1372;-70
2023/12/08 09:07:43;;;;;;;;;;;19.90;58.20;;;;;;5036510;28;1368;-71
2023/12/08 09:10:08;;;;;;;;;;;19.90;58.20;;;;;;5023077;28;1918;-71
2023/12/08 09:12:34;;;;;;;;;;;19.90;58.20;;;;;;5036699;28;1362;-71
2023/12/08 09:14:59;;;;;;;;;;;19.90;58.20;;;;;;5037242;28;1686;-70
2023/12/08 09:17:25;;;;;;;;;;;19.90;58.20;;;;;;5038917;28;1456;-70
2023/12/08 09:19:51;;;;;;;;;;;19.90;58.20;;;;;;5069066;28;1444;-71
2023/12/08 09:22:16;;;;;;;;;;;19.90;58.20;;;;;;5021915;28;1471;-68
2023/12/08 09:24:42;;;;;;;;;;;19.90;58.20;;;;;;5038598;28;1288;-68
2023/12/08 09:27:08;;;;;;;;;;;19.90;58.20;;;;;;5036301;28;1381;-69
2023/12/08 09:29:33;;;;;;;;;;;19.90;58.20;;;;;;5037262;28;1973;-68
2023/12/08 09:31:59;;;;;;;;;;;19.90;58.30;;;;;;5038542;28;1534;-69
2023/12/08 09:34:24;;;;;;;;;;;19.90;58.30;;;;;;5038215;28;1440;-70
2023/12/08 09:36:50;;;;;;;;;;;19.90;58.30;;;;;;5036227;28;1483;-71
2023/12/08 09:39:15;;;;;;;;;;;19.90;58.30;;;;;;5035923;28;1477;-70
2023/12/08 09:41:41;;;;;;;;;;;19.80;58.30;;;;;;5037342;28;1447;-69
2023/12/08 09:44:08;;;;;;;;;;;19.80;58.30;;;;;;5035213;28;1344;-69
2023/12/08 09:46:34;;;;;;;;;;;19.80;58.30;;;;;;5034535;28;1431;-68
2023/12/08 09:48:59;;;;;;;;;;;19.80;58.30;;;;;;5034501;28;1906;-69
2023/12/08 09:51:25;;;;;;;;;;;19.80;58.30;;;;;;5032728;28;1434;-69
2023/12/08 09:53:50;;;;;;;;;;;19.80;58.30;;;;;;5036172;28;1348;-70
2023/12/08 09:56:16;;;;;;;;;;;19.80;58.30;;;;;;5035178;28;979;-69
2023/12/08 09:58:41;;;;;;;;;;;19.80;58.30;;;;;;5037293;28;1349;-70
2023/12/08 10:01:08;;;;;;;;;;;19.80;58.30;;;;;;5037642;28;1211;-70
2023/12/08 10:03:34;;;;;;;;;;;19.80;58.30;;;;;;5035797;28;946;-71
2023/12/08 10:05:59;;;;;;;;;;;19.80;58.40;;;;;;5036985;28;1450;-71
2023/12/08 10:08:25;;;;;;;;;;;19.80;58.30;;;;;;5019990;28;1902;-71
2023/12/08 10:10:50;;;;;;;;;;;19.80;58.40;;;;;;5040497;28;1207;-71
2023/12/08 10:13:16;;;;;;;;;;;19.80;58.40;;;;;;5037581;28;1084;-71
2023/12/08 10:15:42;;;;;;;;;;;19.80;58.40;;;;;;5038958;28;1202;-71
2023/12/08 10:18:08;;;;;;;;;;;19.80;58.40;;;;;;5038262;28;1452;-71
2023/12/08 10:20:33;;;;;;;;;;;19.70;58.40;;;;;;5039364;28;1355;-71
2023/12/08 10:22:58;;;;;;;;;;;19.70;58.40;;;;;;5041305;28;1358;-71
2023/12/08 10:25:25;;;;;;;;;;;19.70;58.50;;;;;;5037903;28;1661;-71
2023/12/08 10:27:51;;;;;;;;;;;19.70;58.50;;;;;;5037457;28;1911;-71
2023/12/08 10:30:17;;;;;;;;;;;19.70;58.60;;;;;;5038835;28;2177;-71
2023/12/08 10:32:43;;;;;;;;;;;19.70;58.60;;;;;;5039872;28;1824;-70
2023/12/08 10:35:10;;;;;;;;;;;19.70;58.60;;;;;;5042828;28;1502;-69
2023/12/08 10:37:35;;;;;;;;;;;19.70;58.60;;;;;;5036733;28;1416;-70
2023/12/08 10:40:01;;;;;;;;;;;19.70;58.60;;;;;;5041036;28;1327;-70
2023/12/08 10:42:27;;;;;;;;;;;19.70;58.60;;;;;;5043176;28;1404;-70
2023/12/08 10:44:52;;;;;;;;;;;19.70;58.60;;;;;;5042308;28;1682;-69
2023/12/08 10:47:17;;;;;;;;;;;19.70;58.60;;;;;;5038386;28;2155;-69
2023/12/08 10:49:43;;;;;;;;;;;19.70;58.50;;;;;;5038718;28;1910;-69
2023/12/08 10:52:08;;;;;;;;;;;19.70;58.60;;;;;;5048218;28;1406;-68
2023/12/08 10:54:34;;;;;;;;;;;19.70;58.50;;;;;;5046894;28;1536;-70
2023/12/08 10:56:59;;;;;;;;;;;19.70;58.50;;;;;;5021888;28;1829;-70
2023/12/08 10:59:25;;;;;;;;;;;19.70;58.50;;;;;;5039600;28;1514;-68
2023/12/08 11:01:54;;;;;;;;;;;19.70;58.50;;;;;;5068584;28;1459;-70
2023/12/08 11:04:21;;;;;;;;;;;19.70;58.40;;;;;;5039990;28;1206;-69
2023/12/08 11:06:57;;;;;;;;;;;19.70;58.40;;;;;;5041221;28;1326;-68
2023/12/08 11:09:22;;;;;;;;;;;19.70;58.40;;;;;;5038769;28;1898;-68
2023/12/08 11:11:50;;;;;;;;;;;19.70;58.40;;;;;;5040248;28;1312;-68
2023/12/08 11:14:23;;;;;;;;;;;19.70;58.40;;;;;;5042651;28;1280;-69
2023/12/08 11:16:55;;;;;;;;;;;19.70;58.40;;;;;;5037022;28;1350;-68
2023/12/08 11:19:20;;;;;;;;;;;19.70;58.50;;;;;;5035584;28;1994;-69
2023/12/08 11:21:46;;;;;;;;;;;19.70;58.40;;;;;;5035916;28;1421;-68
2023/12/08 11:24:11;;;;;;;;;;;19.70;58.40;;;;;;5038201;28;1479;-69
2023/12/08 11:26:49;;;;;;;;;;;19.70;58.40;;;;;;5035568;28;1251;-68
2023/12/08 11:29:18;;;;;;;;;;;19.70;58.40;;;;;;5039691;28;1902;-68
2023/12/08 11:31:43;;;;;;;;;;;19.70;58.40;;;;;;5037512;28;1391;-68
2023/12/08 11:34:12;;;;;;;;;;;19.70;58.50;;;;;;5039858;28;1338;-68
2023/12/08 11:36:47;;;;;;;;;;;19.70;58.40;;;;;;5040063;28;1342;-68
2023/12/08 11:39:30;;;;;;;;;;;19.70;58.50;;;;;;5038136;28;1302;-68
2023/12/08 11:41:56;;;;;;;;;;;19.70;58.50;;;;;;5036999;28;1350;-69
2023/12/08 11:44:22;;;;;;;;;;;19.70;58.50;;;;;;5046680;28;1677;-69
2023/12/08 11:46:51;;;;;;;;;;;19.70;58.50;;;;;;5021753;28;1550;-67
2023/12/08 11:49:16;;;;;;;;;;;19.70;58.50;;;;;;5035791;28;1960;-68
2023/12/08 11:51:44;;;;;;;;;;;19.70;58.50;;;;;;5022466;28;1409;-70
2023/12/08 11:54:10;;;;;;;;;;;19.70;58.50;;;;;;5037818;28;1551;-70
2023/12/08 11:56:36;;;;;;;;;;;19.60;58.50;;;;;;5036176;28;1252;-69
2023/12/08 11:59:01;;;;;;;;;;;19.60;59.10;;;;;;5037722;28;1498;-69
2023/12/08 12:01:28;;;;;;;;;;;19.60;58.50;;;;;;5037530;28;1460;-69
2023/12/08 12:03:54;;;;;;;;;;;19.60;58.50;;;;;;5033903;28;1726;-68
2023/12/08 12:06:19;;;;;;;;;;;19.60;58.50;;;;;;5046251;28;1154;-69
2023/12/08 12:08:45;;;;;;;;;;;19.60;58.50;;;;;;5037550;28;1973;-70
2023/12/08 12:11:10;;;;;;;;;;;19.60;58.50;;;;;;5035690;28;1483;-68
2023/12/08 12:13:37;;;;;;;;;;;19.60;58.50;;;;;;5034939;28;1509;-67
2023/12/08 12:16:03;;;;;;;;;;;19.60;58.50;;;;;;5038038;28;1441;-68
2023/12/08 12:18:30;;;;;;;;;;;19.60;58.60;;;;;;5037571;28;1523;-68
2023/12/08 12:20:55;;;;;;;;;;;19.60;58.50;;;;;;5040772;28;1382;-68
2023/12/08 12:23:21;;;;;;;;;;;19.60;58.50;;;;;;5038519;28;1364;-68
2023/12/08 12:25:47;;;;;;;;;;;19.60;58.60;;;;;;5032164;28;4458;-69
2023/12/08 12:28:13;;;;;;;;;;;19.60;58.60;;;;;;5034567;28;4266;-69
2023/12/08 12:30:38;;;;;;;;;;;19.60;58.70;;;;;;5039399;28;5239;-67
2023/12/08 12:33:04;;;;;;;;;;;19.60;58.60;;;;;;5018486;28;1402;-68
2023/12/08 12:35:29;;;;;;;;;;;19.60;58.60;;;;;;5038970;28;1343;-67
2023/12/08 12:37:54;;;;;;;;;;;19.60;58.70;;;;;;5038660;28;1300;-67
2023/12/08 12:40:20;;;;;;;;;;;19.50;58.70;;;;;;5038315;28;1280;-67
2023/12/08 12:42:46;;;;;;;;;;;19.50;58.70;;;;;;5037667;28;1388;-67
2023/12/08 12:45:24;;;;;;;;;;;19.50;58.70;;;;;;5037115;28;1418;-67
2023/12/08 12:47:50;;;;;;;;;;;19.50;58.70;;;;;;5039166;28;1323;-68
2023/12/08 12:50:15;;;;;;;;;;;19.50;58.70;;;;;;5035853;28;1961;-68
2023/12/08 12:52:41;;;;;;;;;;;19.50;58.80;;;;;;5037713;28;1342;-68
2023/12/08 12:55:22;;;;;;;;;;;19.50;58.80;;;;;;5039741;28;1367;-68
2023/12/08 12:57:48;;;;;;;;;;;19.50;58.80;;;;;;5045618;28;1423;-69
2023/12/08 13:00:14;;;;;;;;;;;19.50;58.80;;;;;;5035383;28;1314;-69
2023/12/08 13:02:40;;;;;;;;;;;19.50;58.90;;;;;;5025033;28;4610;-69
2023/12/08 13:05:07;;;;;;;;;;;19.40;58.90;;;;;;5035679;28;4068;-68
2023/12/08 13:07:32;;;;;;;;;;;19.40;58.90;;;;;;5036578;28;4489;-68
2023/12/08 13:09:59;;;;;;;;;;;19.40;58.90;;;;;;5045528;28;2324;-69
2023/12/08 13:12:25;;;;;;;;;;;19.40;58.90;;;;;;5038815;28;1410;-68
2023/12/08 13:14:51;;;;;;;;;;;19.40;59.00;;;;;;5036437;28;1482;-68
2023/12/08 13:17:19;;;;;;;;;;;19.40;59.00;;;;;;5036549;28;1270;-68
2023/12/08 13:19:45;;;;;;;;;;;19.40;59.00;;;;;;5045283;28;1422;-69
2023/12/08 13:22:10;;;;;;;;;;;19.40;59.00;;;;;;5034925;28;941;-68
2023/12/08 13:24:36;;;;;;;;;;;19.30;59.00;;;;;;5046165;28;991;-68
2023/12/08 13:27:01;;;;;;;;;;;19.30;59.10;;;;;;5037650;28;1256;-69
2023/12/08 13:29:27;;;;;;;;;;;19.30;59.10;;;;;;5037834;28;1995;-69
2023/12/08 13:31:52;;;;;;;;;;;19.30;59.10;;;;;;5037593;28;1312;-68
2023/12/08 13:34:18;;;;;;;;;;;19.30;59.10;;;;;;5037685;28;1279;-68
2023/12/08 13:36:43;;;;;;;;;;;19.30;59.20;;;;;;5035386;28;1304;-68
2023/12/08 13:39:10;;;;;;;;;;;19.30;59.20;;;;;;5039359;28;1238;-69
2023/12/08 13:41:35;;;;;;;;;;;19.30;59.20;;;;;;5067719;28;1460;-68
2023/12/08 13:44:01;;;;;;;;;;;19.30;59.20;;;;;;5038105;28;1545;-69
2023/12/08 13:46:26;;;;;;;;;;;19.30;59.20;;;;;;5041141;28;1423;-69
2023/12/08 13:48:51;;;;;;;;;;;19.30;59.20;;;;;;5041293;28;1902;-69
2023/12/08 13:51:17;;;;;;;;;;;19.30;59.20;;;;;;5038995;28;1678;-68
2023/12/08 13:53:42;;;;;;;;;;;19.30;59.30;;;;;;5043040;28;1504;-68
2023/12/08 13:56:08;;;;;;;;;;;19.30;59.30;;;;;;5044979;28;1332;-68
2023/12/08 13:58:34;;;;;;;;;;;19.30;59.30;;;;;;5042087;28;1485;-69
2023/12/08 14:01:00;;;;;;;;;;;19.20;59.30;;;;;;5042313;28;1523;-68
2023/12/08 14:03:25;;;;;;;;;;;19.20;59.30;;;;;;5039917;28;1145;-69
2023/12/08 14:05:51;;;;;;;;;;;19.20;59.40;;;;;;5040308;28;1632;-68
2023/12/08 14:08:16;;;;;;;;;;;19.20;59.40;;;;;;5041708;28;1902;-69
2023/12/08 14:10:42;;;;;;;;;;;19.20;59.40;;;;;;5042253;28;1452;-68
2023/12/08 14:13:07;;;;;;;;;;;19.20;60.00;;;;;;5041669;28;1570;-68
2023/12/08 14:15:32;;;;;;;;;;;19.20;59.40;;;;;;5041462;28;1402;-69
2023/12/08 14:17:58;;;;;;;;;;;19.20;59.40;;;;;;5041579;28;1477;-69
2023/12/08 14:20:23;;;;;;;;;;;19.20;59.50;;;;;;5041886;28;1327;-68
2023/12/08 14:22:51;;;;;;;;;;;19.20;59.50;;;;;;5042281;28;1428;-69